createdAt,value
2023-02-19T00:02:21.087Z,3.50
2023-02-19T00:04:51.657Z,2.25
2023-02-19T00:07:22.055Z,2.25
2023-02-19T00:09:53.085Z,4.00
2023-02-19T00:12:23.596Z,1.25
2023-02-19T00:14:53.960Z,2.00
2023-02-19T00:17:24.485Z,5.00
2023-02-19T00:19:55.680Z,1.75
2023-02-19T00:22:26.005Z,5.25
2023-02-19T00:24:58.268Z,3.00
2023-02-19T00:27:30.284Z,6.00
2023-02-19T00:30:00.865Z,5.00
2023-02-19T00:32:32.190Z,5.00
2023-02-19T00:35:02.500Z,3.00
2023-02-19T00:37:33.503Z,2.75
2023-02-19T00:40:04.140Z,2.00
2023-02-19T00:42:34.860Z,2.00
2023-02-19T00:45:05.787Z,3.00
2023-02-19T00:47:36.322Z,1.00
2023-02-19T00:50:06.800Z,2.50
2023-02-19T00:52:37.226Z,2.00
2023-02-19T00:55:08.276Z,3.50
2023-02-19T00:57:39.922Z,3.00
2023-02-19T01:00:11.516Z,1.00
2023-02-19T01:02:42.238Z,2.00
2023-02-19T01:05:13.265Z,1.25
2023-02-19T01:07:44.118Z,2.00
2023-02-19T01:10:14.518Z,2.00
2023-02-19T01:12:45.352Z,4.50
2023-02-19T01:15:15.793Z,2.00
2023-02-19T01:17:46.339Z,2.00
2023-02-19T01:20:16.715Z,3.00
2023-02-19T01:22:47.053Z,2.00
2023-02-19T01:25:17.978Z,3.00
2023-02-19T01:27:48.414Z,2.75
2023-02-19T01:30:20.150Z,3.00
2023-02-19T01:32:50.397Z,3.25
2023-02-19T01:35:21.451Z,2.50
2023-02-19T01:37:51.687Z,3.00
2023-02-19T01:40:23.580Z,3.00
2023-02-19T01:42:54.018Z,2.00
2023-02-19T01:45:33.109Z,1.00
2023-02-19T01:48:33.350Z,2.00
2023-02-19T01:51:08.950Z,3.00
2023-02-19T01:53:48.261Z,1.25
2023-02-19T01:56:22.469Z,2.25
2023-02-19T01:58:54.058Z,2.00
2023-02-19T02:01:24.370Z,3.50
2023-02-19T02:03:54.947Z,2.00
2023-02-19T02:06:28.333Z,3.00
2023-02-19T02:08:59.639Z,2.00
2023-02-19T02:11:30.822Z,4.00
2023-02-19T02:14:03.202Z,3.00
2023-02-19T02:16:53.043Z,4.50
2023-02-19T02:19:51.667Z,4.50
2023-02-19T02:22:36.523Z,3.00
2023-02-19T02:25:27.874Z,4.50
2023-02-19T02:28:13.195Z,6.75
2023-02-19T02:30:59.157Z,5.00
2023-02-19T02:33:50.098Z,5.00
2023-02-19T02:36:41.024Z,5.50
2023-02-19T02:39:14.336Z,5.00
2023-02-19T02:41:46.632Z,6.00
2023-02-19T02:44:17.238Z,6.00
2023-02-19T02:46:49.321Z,5.00
2023-02-19T02:49:22.054Z,5.00
2023-02-19T02:51:56.547Z,6.00
2023-02-19T02:54:53.317Z,6.00
2023-02-19T02:57:25.290Z,3.00
2023-02-19T02:59:55.964Z,5.00
2023-02-19T03:02:29.406Z,3.50
2023-02-19T03:05:29.398Z,2.25
2023-02-19T03:08:08.242Z,2.75
2023-02-19T03:10:47.424Z,2.25
2023-02-19T03:13:23.915Z,2.00
2023-02-19T03:16:15.181Z,1.75
2023-02-19T03:18:49.142Z,2.00
2023-02-19T03:21:22.230Z,1.75
2023-02-19T03:23:57.269Z,1.00
2023-02-19T03:26:29.296Z,1.75
2023-02-19T03:29:01.323Z,3.00
2023-02-19T03:31:34.106Z,1.75
2023-02-19T03:34:07.512Z,3.00
2023-02-19T03:36:46.907Z,2.00
2023-02-19T03:39:20.334Z,2.00
2023-02-19T03:41:56.874Z,2.00
2023-02-19T03:44:50.990Z,2.25
2023-02-19T03:47:28.105Z,1.25
2023-02-19T03:50:20.877Z,2.00
2023-02-19T03:53:20.045Z,1.50
2023-02-19T03:56:18.098Z,2.50
2023-02-19T03:58:52.309Z,11.20
2023-02-19T04:01:49.441Z,9.20
2023-02-19T04:04:31.370Z,14.80
2023-02-19T04:07:02.475Z,7.75
2023-02-19T04:09:49.158Z,9.75
2023-02-19T04:12:21.672Z,14.60
2023-02-19T04:14:55.332Z,15.00
2023-02-19T04:17:46.071Z,14.20
2023-02-19T04:20:19.569Z,6.80
2023-02-19T04:22:51.969Z,2.50
2023-02-19T04:25:25.731Z,3.00
2023-02-19T04:27:56.232Z,2.00
2023-02-19T04:30:26.564Z,2.00
2023-02-19T04:32:57.510Z,2.00
2023-02-19T04:35:30.622Z,1.75
2023-02-19T04:38:01.302Z,2.00
2023-02-19T04:40:31.924Z,1.00
2023-02-19T04:43:02.516Z,2.00
2023-02-19T04:45:33.305Z,1.75
2023-02-19T04:48:04.198Z,2.00
2023-02-19T04:50:34.609Z,1.00
2023-02-19T04:53:06.777Z,2.00
2023-02-19T04:55:40.617Z,1.25
2023-02-19T04:58:10.969Z,1.00
2023-02-19T05:00:43.132Z,1.75
2023-02-19T05:03:13.678Z,1.00
2023-02-19T05:05:44.328Z,1.00
2023-02-19T05:08:15.764Z,0.00
2023-02-19T05:10:46.338Z,1.00
2023-02-19T05:13:17.330Z,2.00
2023-02-19T05:15:55.788Z,2.00
2023-02-19T05:18:26.874Z,2.00
2023-02-19T05:20:59.491Z,2.00
2023-02-19T05:23:30.686Z,1.00
2023-02-19T05:26:09.437Z,2.00
2023-02-19T05:28:40.399Z,3.00
2023-02-19T05:31:13.124Z,2.25
2023-02-19T05:33:43.998Z,1.00
2023-02-19T05:36:14.964Z,2.00
2023-02-19T05:38:45.744Z,2.00
2023-02-19T05:41:19.190Z,2.00
2023-02-19T05:43:50.780Z,2.00
2023-02-19T05:46:23.869Z,2.00
2023-02-19T05:48:55.261Z,2.00
2023-02-19T05:51:27.490Z,2.00
2023-02-19T05:53:58.540Z,2.25
2023-02-19T05:56:32.391Z,2.25
2023-02-19T05:59:06.266Z,3.50
2023-02-19T06:01:37.190Z,1.50
2023-02-19T06:04:07.594Z,1.75
2023-02-19T06:06:39.242Z,3.00
2023-02-19T06:09:10.782Z,2.00
2023-02-19T06:11:44.346Z,1.50
2023-02-19T06:14:16.085Z,5.00
2023-02-19T06:16:46.518Z,3.00
2023-02-19T06:19:21.242Z,3.00
2023-02-19T06:21:52.081Z,3.00
2023-02-19T06:24:22.585Z,2.75
2023-02-19T06:26:53.768Z,2.50
2023-02-19T06:29:24.371Z,2.50
2023-02-19T06:31:54.998Z,3.50
2023-02-19T06:34:25.674Z,4.50
2023-02-19T06:36:57.894Z,3.00
2023-02-19T06:39:29.153Z,5.00
2023-02-19T06:42:00.106Z,3.00
2023-02-19T06:44:30.885Z,2.25
2023-02-19T06:47:05.340Z,4.00
2023-02-19T06:49:36.320Z,1.50
2023-02-19T06:52:08.345Z,3.00
2023-02-19T06:54:39.336Z,2.75
2023-02-19T06:57:09.915Z,3.00
2023-02-19T06:59:40.722Z,1.00
2023-02-19T07:02:14.605Z,2.50
2023-02-19T07:04:45.922Z,5.75
2023-02-19T07:07:17.312Z,2.25
2023-02-19T07:09:49.201Z,2.75
2023-02-19T07:12:19.767Z,2.75
2023-02-19T07:14:50.813Z,3.00
2023-02-19T07:17:21.480Z,3.75
2023-02-19T07:19:52.044Z,2.75
2023-02-19T07:22:25.943Z,3.00
2023-02-19T07:24:56.552Z,2.25
2023-02-19T07:27:27.041Z,2.25
2023-02-19T07:29:58.384Z,3.75
2023-02-19T07:32:30.393Z,3.00
2023-02-19T07:35:01.202Z,1.75
2023-02-19T07:37:35.275Z,3.00
2023-02-19T07:40:15.384Z,2.25
2023-02-19T07:42:45.738Z,3.00
2023-02-19T07:45:16.449Z,4.00
2023-02-19T07:47:48.164Z,2.00
2023-02-19T07:50:19.193Z,2.75
2023-02-19T07:52:49.508Z,3.00
2023-02-19T07:55:20.190Z,3.25
2023-02-19T07:57:51.189Z,4.00
2023-02-19T08:00:23.191Z,3.50
2023-02-19T08:02:54.813Z,3.50
2023-02-19T08:05:25.702Z,3.00
2023-02-19T08:07:56.071Z,3.25
2023-02-19T08:10:26.836Z,2.75
2023-02-19T08:13:01.474Z,2.75
2023-02-19T08:15:34.183Z,3.25
2023-02-19T08:18:05.480Z,3.75
2023-02-19T08:20:37.059Z,4.00
2023-02-19T08:23:08.224Z,3.00
2023-02-19T08:25:39.744Z,2.60
2023-02-19T08:28:12.927Z,3.20
2023-02-19T08:30:45.391Z,4.00
2023-02-19T08:33:19.373Z,2.80
2023-02-19T08:35:52.159Z,2.60
2023-02-19T08:38:23.477Z,4.60
2023-02-19T08:40:54.676Z,4.00
2023-02-19T08:43:31.467Z,2.80
2023-02-19T08:46:02.972Z,3.00
2023-02-19T08:48:37.515Z,3.80
2023-02-19T08:51:13.189Z,2.40
2023-02-19T08:53:44.640Z,5.00
2023-02-19T08:56:18.628Z,3.00
2023-02-19T08:58:55.248Z,4.00
2023-02-19T09:01:30.218Z,3.40
2023-02-19T09:04:02.972Z,4.20
2023-02-19T09:06:35.384Z,2.80
2023-02-19T09:09:06.365Z,3.20
2023-02-19T09:11:39.640Z,3.80
2023-02-19T09:14:10.598Z,4.40
2023-02-19T09:16:41.900Z,3.40
2023-02-19T09:19:12.991Z,5.00
2023-02-19T09:21:43.995Z,3.60
2023-02-19T09:24:14.354Z,2.40
2023-02-19T09:26:51.448Z,5.60
2023-02-19T09:29:21.838Z,3.20
2023-02-19T09:31:57.828Z,2.40
2023-02-19T09:34:29.544Z,4.40
2023-02-19T09:36:59.983Z,4.00
2023-02-19T09:39:30.475Z,3.40
2023-02-19T09:42:06.668Z,3.80
2023-02-19T09:44:40.547Z,5.60
2023-02-19T09:47:22.959Z,3.00
2023-02-19T09:49:56.249Z,4.20
2023-02-19T09:52:32.298Z,4.60
2023-02-19T09:55:22.017Z,5.00
2023-02-19T09:57:53.511Z,5.00
2023-02-19T10:00:37.826Z,3.20
2023-02-19T10:03:14.358Z,4.20
2023-02-19T10:05:44.957Z,4.20
2023-02-19T10:08:18.510Z,3.75
2023-02-19T10:10:49.109Z,0.00
2023-02-19T10:13:29.156Z,4.00
2023-02-19T10:16:06.455Z,4.00
2023-02-19T10:18:47.093Z,3.75
2023-02-19T10:21:39.224Z,5.00
2023-02-19T10:24:16.070Z,5.00
2023-02-19T10:26:51.161Z,4.00
2023-02-19T10:29:25.091Z,4.00
2023-02-19T10:32:13.008Z,3.25
2023-02-19T10:34:43.573Z,3.50
2023-02-19T10:37:17.400Z,3.75
2023-02-19T10:39:50.965Z,3.00
2023-02-19T10:42:23.532Z,2.75
2023-02-19T10:45:00.371Z,2.25
2023-02-19T10:47:32.640Z,4.00
2023-02-19T10:50:04.834Z,3.00
2023-02-19T10:52:36.472Z,3.50
2023-02-19T10:55:18.597Z,3.00
2023-02-19T10:57:49.026Z,3.00
2023-02-19T11:00:27.773Z,3.00
2023-02-19T11:03:21.071Z,3.25
2023-02-19T11:05:54.517Z,4.00
2023-02-19T11:08:25.999Z,4.00
2023-02-19T11:10:56.730Z,3.00
2023-02-19T11:13:30.303Z,2.00
2023-02-19T11:16:02.137Z,1.25
2023-02-19T11:18:34.876Z,2.00
2023-02-19T11:21:07.301Z,2.00
2023-02-19T11:23:47.658Z,2.00
2023-02-19T11:26:21.294Z,3.00
2023-02-19T11:29:03.415Z,2.50
2023-02-19T11:31:35.826Z,2.75
2023-02-19T11:34:21.390Z,3.75
2023-02-19T11:37:09.822Z,3.00
2023-02-19T11:39:42.903Z,3.25
2023-02-19T11:42:47.643Z,3.75
2023-02-19T11:45:30.612Z,2.75
2023-02-19T11:48:23.649Z,3.50
2023-02-19T11:51:03.503Z,3.75
2023-02-19T11:53:35.914Z,2.00
2023-02-19T11:56:20.924Z,3.00
2023-02-19T11:59:02.834Z,4.75
2023-02-19T12:01:55.883Z,2.50
2023-02-19T12:04:58.485Z,2.00
2023-02-19T12:07:40.712Z,2.00
2023-02-19T12:10:39.637Z,3.00
2023-02-19T12:13:35.442Z,3.75
2023-02-19T12:16:30.137Z,3.50
2023-02-19T12:19:22.898Z,4.00
2023-02-19T12:22:22.283Z,3.00
2023-02-19T12:28:10.076Z,3.50
2023-02-19T12:33:41.396Z,2.75
2023-02-19T12:36:36.075Z,3.00
2023-02-19T12:39:21.456Z,3.25
2023-02-19T12:42:00.873Z,4.50
2023-02-19T12:44:43.453Z,4.50
2023-02-19T12:47:25.712Z,2.75
2023-02-19T12:50:06.124Z,5.00
2023-02-19T12:52:43.328Z,3.00
2023-02-19T12:55:28.793Z,5.00
2023-02-19T12:58:04.341Z,3.75
2023-02-19T13:00:39.409Z,4.00
2023-02-19T13:03:32.424Z,2.50
2023-02-19T13:06:07.113Z,3.75
2023-02-19T13:09:05.258Z,5.00
2023-02-19T13:11:30.928Z,5.00
2023-02-19T13:14:13.322Z,4.25
2023-02-19T13:16:49.083Z,4.00
2023-02-19T13:19:20.600Z,4.00
2023-02-19T13:21:53.950Z,5.00
2023-02-19T13:24:30.580Z,4.25
2023-02-19T13:27:03.923Z,1.25
2023-02-19T13:30:07.309Z,4.00
2023-02-19T13:32:46.792Z,2.50
2023-02-19T13:35:37.588Z,4.00
2023-02-19T13:38:11.304Z,3.00
2023-02-19T13:40:44.337Z,4.00
2023-02-19T13:43:32.638Z,2.75
2023-02-19T13:46:06.538Z,4.25
2023-02-19T13:48:42.026Z,4.00
2023-02-19T13:51:40.562Z,3.75
2023-02-19T14:10:53.998Z,4.75
2023-02-19T14:14:02.530Z,3.50
2023-02-19T14:19:24.623Z,4.00
2023-02-19T14:21:55.099Z,4.00
2023-02-19T14:24:25.820Z,4.00
2023-02-19T14:26:58.186Z,7.00
2023-02-19T14:29:29.339Z,7.00
2023-02-19T14:31:59.750Z,6.25
2023-02-19T14:34:30.210Z,3.25
2023-02-19T14:37:03.021Z,4.00
2023-02-19T14:39:38.168Z,6.25
2023-02-19T14:42:28.711Z,0.00
2023-02-19T14:45:02.382Z,3.00
2023-02-19T14:47:34.074Z,2.75
2023-02-19T14:50:09.799Z,2.75
2023-02-19T14:52:43.228Z,4.25
2023-02-19T14:55:35.806Z,2.75
2023-02-19T14:58:11.142Z,2.75
2023-02-19T15:00:43.440Z,2.75
2023-02-19T15:03:49.000Z,2.00
2023-02-19T15:06:24.217Z,3.00
2023-02-19T15:09:00.141Z,3.00
2023-02-19T15:11:40.071Z,4.75
2023-02-19T15:14:39.398Z,6.75
2023-02-19T15:17:17.355Z,2.00
2023-02-19T15:23:41.992Z,5.00
2023-02-19T15:29:13.871Z,5.00
2023-02-19T15:31:52.802Z,6.25
2023-02-19T15:34:31.375Z,6.25
2023-02-19T15:37:08.697Z,4.25
2023-02-19T15:39:56.550Z,4.25
2023-02-19T15:59:11.406Z,7.00
2023-02-19T16:01:44.874Z,6.00
2023-02-19T16:04:21.064Z,6.50
2023-02-19T16:07:18.223Z,4.75
2023-02-19T16:09:56.277Z,6.50
2023-02-19T16:13:36.914Z,5.00
2023-02-19T16:15:34.440Z,6.00
2023-02-19T16:18:09.380Z,5.50
2023-02-19T16:20:42.605Z,7.00
2023-02-19T16:23:16.800Z,7.00
2023-02-19T16:25:48.541Z,4.50
2023-02-19T16:28:21.889Z,6.50
2023-02-19T16:31:04.587Z,7.25
2023-02-19T16:33:55.972Z,7.00
2023-02-19T16:36:45.907Z,3.00
2023-02-19T16:39:20.662Z,5.25
2023-02-19T16:41:54.479Z,5.50
2023-02-19T16:44:30.778Z,5.00
2023-02-19T16:47:06.992Z,4.00
2023-02-19T16:49:41.132Z,8.50
2023-02-19T16:52:17.075Z,7.00
2023-02-19T16:54:53.287Z,6.50
2023-02-19T16:57:27.465Z,13.25
2023-02-19T16:59:59.268Z,12.00
2023-02-19T17:02:30.396Z,8.75
2023-02-19T17:05:01.441Z,11.00
2023-02-19T17:07:32.192Z,13.00
2023-02-19T17:10:06.685Z,12.25
2023-02-19T17:12:38.563Z,10.50
2023-02-19T17:15:23.365Z,10.75
2023-02-19T17:18:00.756Z,12.00
2023-02-19T17:20:41.258Z,10.50
2023-02-19T17:23:13.234Z,11.50
2023-02-19T17:25:46.226Z,9.25
2023-02-19T17:28:25.095Z,14.50
2023-02-19T17:30:56.677Z,11.25
2023-02-19T17:33:29.646Z,16.75
2023-02-19T17:36:00.669Z,14.25
2023-02-19T17:38:33.862Z,15.75
2023-02-19T17:41:08.465Z,13.00
2023-02-19T17:43:39.937Z,18.50
2023-02-19T17:46:19.263Z,15.00
2023-02-19T17:48:56.957Z,24.00
2023-02-19T17:51:33.286Z,30.00
2023-02-19T17:54:12.721Z,22.75
2023-02-19T17:56:43.912Z,34.50
2023-02-19T17:59:18.444Z,34.00
2023-02-19T18:01:51.498Z,33.50
2023-02-19T18:04:23.991Z,37.75
2023-02-19T18:06:56.249Z,42.50
2023-02-19T18:09:28.697Z,42.75
2023-02-19T18:12:00.626Z,39.50
2023-02-19T18:14:31.578Z,40.00
2023-02-19T18:17:03.560Z,39.50
2023-02-19T18:19:35.781Z,30.50
2023-02-19T18:22:08.389Z,34.50
2023-02-19T18:24:48.697Z,30.75
2023-02-19T18:27:23.712Z,23.75
2023-02-19T18:29:58.771Z,25.50
2023-02-19T18:32:31.290Z,23.25
2023-02-19T18:35:02.038Z,21.50
2023-02-19T18:37:39.554Z,20.75
2023-02-19T18:40:11.824Z,21.00
2023-02-19T18:42:50.465Z,22.25
2023-02-19T18:48:05.744Z,21.00
2023-02-19T18:50:37.054Z,18.00
2023-02-19T18:53:08.000Z,39.75
2023-02-19T18:55:43.002Z,20.25
2023-02-19T18:58:15.023Z,19.75
2023-02-19T19:00:48.891Z,20.75
2023-02-19T19:03:23.648Z,20.75
2023-02-19T19:05:57.008Z,18.75
2023-02-19T19:08:30.733Z,16.00
2023-02-19T19:11:05.393Z,22.25
2023-02-19T19:13:43.089Z,23.50
2023-02-19T19:16:48.342Z,28.75
2023-02-19T19:19:27.839Z,35.25
2023-02-19T19:22:00.819Z,31.75
2023-02-19T19:24:35.279Z,27.75
2023-02-19T19:27:17.582Z,31.50
2023-02-19T19:29:49.749Z,31.00
2023-02-19T19:32:24.701Z,34.25
2023-02-19T19:35:08.312Z,35.75
2023-02-19T19:37:41.665Z,33.75
2023-02-19T19:40:28.438Z,29.75
2023-02-19T19:42:58.027Z,35.00
2023-02-19T19:45:37.013Z,37.75
2023-02-19T19:48:09.878Z,32.75
2023-02-19T19:50:43.792Z,30.25
2023-02-19T19:53:14.979Z,36.50
2023-02-19T19:55:46.004Z,37.50
2023-02-19T19:58:42.829Z,36.00
2023-02-19T20:01:18.499Z,29.75
2023-02-19T20:03:50.250Z,21.25
2023-02-19T20:06:47.690Z,26.00
2023-02-19T20:09:27.965Z,21.50
2023-02-19T20:12:07.710Z,22.00
2023-02-19T20:14:47.993Z,21.50
2023-02-19T20:17:29.756Z,23.50
2023-02-19T20:20:00.442Z,22.75
2023-02-19T20:22:35.189Z,19.00
2023-02-19T20:25:10.419Z,25.75
2023-02-19T20:27:46.145Z,27.25
2023-02-19T20:30:21.830Z,23.75
2023-02-19T20:32:52.574Z,27.00
2023-02-19T20:35:36.101Z,29.75
2023-02-19T20:37:59.079Z,27.00
2023-02-19T20:40:38.286Z,24.25
2023-02-19T20:43:10.371Z,26.25
2023-02-19T20:45:42.509Z,27.25
2023-02-19T20:48:21.136Z,30.25
2023-02-19T20:50:53.578Z,32.25
2023-02-19T20:53:37.187Z,32.00
2023-02-19T20:56:10.888Z,34.00
2023-02-19T20:58:48.994Z,31.25
2023-02-19T21:01:28.967Z,31.00
2023-02-19T21:04:03.529Z,30.00
2023-02-19T21:06:40.472Z,29.50
2023-02-19T21:09:23.602Z,29.00
2023-02-19T21:11:56.866Z,29.75
2023-02-19T21:14:29.680Z,29.25
2023-02-19T21:17:00.294Z,34.25
2023-02-19T21:19:33.252Z,36.00
2023-02-19T21:22:05.841Z,34.75
2023-02-19T21:24:41.539Z,32.50
2023-02-19T21:27:12.537Z,29.00
2023-02-19T21:29:51.715Z,33.00
2023-02-19T21:32:22.713Z,33.50
2023-02-19T21:35:03.642Z,32.50
2023-02-19T21:37:43.246Z,33.50
2023-02-19T21:40:20.301Z,30.00
2023-02-19T21:42:53.052Z,29.50
2023-02-19T21:48:33.514Z,9.50
2023-02-19T21:51:12.161Z,52.50
2023-02-19T21:53:49.831Z,61.00
2023-02-19T21:56:26.145Z,41.50
2023-02-19T21:58:57.885Z,32.75
2023-02-19T22:01:36.621Z,27.75
2023-02-19T22:04:14.915Z,29.75
2023-02-19T22:06:47.977Z,28.25
2023-02-19T22:09:21.590Z,25.00
2023-02-19T22:12:01.703Z,29.00
2023-02-19T22:14:37.950Z,28.00
2023-02-19T22:17:20.012Z,28.75
2023-02-19T22:19:52.518Z,27.25
2023-02-19T22:22:24.271Z,24.75
2023-02-19T22:24:59.551Z,19.50
2023-02-19T22:27:36.363Z,22.50
2023-02-19T22:30:13.298Z,24.25
2023-02-19T22:32:46.663Z,21.75
2023-02-19T22:35:17.387Z,22.00
2023-02-19T22:37:51.741Z,20.75
2023-02-19T22:40:33.491Z,15.75
2023-02-19T22:43:06.898Z,9.75
2023-02-19T22:45:39.588Z,7.00
2023-02-19T22:48:13.106Z,6.75
2023-02-19T22:50:47.829Z,6.50
2023-02-19T22:53:21.066Z,7.75
2023-02-19T22:55:51.918Z,9.75
2023-02-19T22:58:23.867Z,9.00
2023-02-19T23:00:56.060Z,6.00
2023-02-19T23:03:28.232Z,6.00
2023-02-19T23:06:05.015Z,9.25
2023-02-19T23:08:36.405Z,10.25
2023-02-19T23:11:07.524Z,8.00
2023-02-19T23:13:39.921Z,9.50
2023-02-19T23:16:10.977Z,11.00
2023-02-19T23:18:45.369Z,9.00
2023-02-19T23:21:16.661Z,7.00
2023-02-19T23:23:52.413Z,10.00
2023-02-19T23:26:25.188Z,10.75
2023-02-19T23:28:58.616Z,7.00
2023-02-19T23:31:32.589Z,9.00
2023-02-19T23:34:03.670Z,11.75
2023-02-19T23:36:48.082Z,6.75
2023-02-19T23:39:24.023Z,4.00
2023-02-19T23:41:57.194Z,6.25
2023-02-19T23:44:28.893Z,6.25
2023-02-19T23:46:59.355Z,5.50
2023-02-19T23:49:34.807Z,7.00
2023-02-19T23:52:05.164Z,9.25
2023-02-19T23:54:37.636Z,8.00
2023-02-19T23:57:09.265Z,9.50
2023-02-19T23:59:41.298Z,9.00
